sensor_id;sensor_type;location;lat;lon;timestamp;P1;durP1;ratioP1;P2;durP2;ratioP2
14118;SDS011;7138;49.246;9.100;2024-03-08T00:02:22;28.10;;;17.90;;
14118;SDS011;7138;49.246;9.100;2024-03-08T00:04:48;30.02;;;18.77;;
14118;SDS011;7138;49.246;9.100;2024-03-08T00:07:15;27.73;;;18.90;;
14118;SDS011;7138;49.246;9.100;2024-03-08T00:09:41;26.50;;;17.08;;
14118;SDS011;7138;49.246;9.100;2024-03-08T00:12:07;27.15;;;17.90;;
14118;SDS011;7138;49.246;9.100;2024-03-08T00:14:33;30.60;;;18.45;;
14118;SDS011;7138;49.246;9.100;2024-03-08T00:17:02;26.85;;;18.10;;
14118;SDS011;7138;49.246;9.100;2024-03-08T00:19:28;26.20;;;16.40;;
14118;SDS011;7138;49.246;9.100;2024-03-08T00:21:54;27.67;;;18.88;;
14118;SDS011;7138;49.246;9.100;2024-03-08T00:24:21;30.27;;;19.05;;
14118;SDS011;7138;49.246;9.100;2024-03-08T00:26:50;29.75;;;17.70;;
14118;SDS011;7138;49.246;9.100;2024-03-08T00:29:15;26.30;;;16.52;;
14118;SDS011;7138;49.246;9.100;2024-03-08T00:31:42;27.75;;;18.27;;
14118;SDS011;7138;49.246;9.100;2024-03-08T00:34:08;28.60;;;18.70;;
14118;SDS011;7138;49.246;9.100;2024-03-08T00:36:36;26.75;;;18.15;;
14118;SDS011;7138;49.246;9.100;2024-03-08T00:39:02;26.65;;;18.13;;
14118;SDS011;7138;49.246;9.100;2024-03-08T00:41:32;27.40;;;18.75;;
14118;SDS011;7138;49.246;9.100;2024-03-08T00:43:58;28.10;;;18.63;;
14118;SDS011;7138;49.246;9.100;2024-03-08T00:46:24;27.90;;;17.92;;
14118;SDS011;7138;49.246;9.100;2024-03-08T00:48:50;27.55;;;18.88;;
14118;SDS011;7138;49.246;9.100;2024-03-08T00:51:15;27.48;;;18.23;;
14118;SDS011;7138;49.246;9.100;2024-03-08T00:53:41;28.67;;;18.40;;
14118;SDS011;7138;49.246;9.100;2024-03-08T00:56:08;29.08;;;18.52;;
14118;SDS011;7138;49.246;9.100;2024-03-08T00:58:37;26.77;;;17.52;;
14118;SDS011;7138;49.246;9.100;2024-03-08T01:01:04;26.80;;;17.08;;
14118;SDS011;7138;49.246;9.100;2024-03-08T01:03:30;26.05;;;17.83;;
14118;SDS011;7138;49.246;9.100;2024-03-08T01:05:56;28.35;;;18.58;;
14118;SDS011;7138;49.246;9.100;2024-03-08T01:08:22;28.60;;;18.52;;
14118;SDS011;7138;49.246;9.100;2024-03-08T01:10:48;27.40;;;17.90;;
14118;SDS011;7138;49.246;9.100;2024-03-08T01:13:15;31.02;;;18.65;;
14118;SDS011;7138;49.246;9.100;2024-03-08T01:15:43;28.92;;;19.00;;
14118;SDS011;7138;49.246;9.100;2024-03-08T01:18:08;30.60;;;18.88;;
14118;SDS011;7138;49.246;9.100;2024-03-08T01:20:35;26.58;;;18.02;;
14118;SDS011;7138;49.246;9.100;2024-03-08T01:23:01;29.23;;;18.20;;
14118;SDS011;7138;49.246;9.100;2024-03-08T01:25:26;26.88;;;18.40;;
14118;SDS011;7138;49.246;9.100;2024-03-08T01:27:52;31.73;;;19.23;;
14118;SDS011;7138;49.246;9.100;2024-03-08T01:30:18;28.33;;;17.88;;
14118;SDS011;7138;49.246;9.100;2024-03-08T01:32:45;30.02;;;18.60;;
14118;SDS011;7138;49.246;9.100;2024-03-08T01:35:11;30.17;;;18.67;;
14118;SDS011;7138;49.246;9.100;2024-03-08T01:37:38;33.05;;;19.23;;
14118;SDS011;7138;49.246;9.100;2024-03-08T01:40:04;29.70;;;19.15;;
14118;SDS011;7138;49.246;9.100;2024-03-08T01:42:33;28.65;;;17.00;;
14118;SDS011;7138;49.246;9.100;2024-03-08T01:45:02;29.27;;;18.67;;
14118;SDS011;7138;49.246;9.100;2024-03-08T01:47:30;32.33;;;19.10;;
14118;SDS011;7138;49.246;9.100;2024-03-08T01:49:59;30.35;;;18.58;;
14118;SDS011;7138;49.246;9.100;2024-03-08T01:52:34;31.15;;;19.30;;
14118;SDS011;7138;49.246;9.100;2024-03-08T01:55:02;31.02;;;19.52;;
14118;SDS011;7138;49.246;9.100;2024-03-08T01:57:32;29.52;;;18.20;;
14118;SDS011;7138;49.246;9.100;2024-03-08T01:59:58;27.02;;;17.83;;
14118;SDS011;7138;49.246;9.100;2024-03-08T02:02:28;33.50;;;19.17;;
14118;SDS011;7138;49.246;9.100;2024-03-08T02:04:58;29.40;;;18.35;;
14118;SDS011;7138;49.246;9.100;2024-03-08T02:07:26;31.02;;;18.13;;
14118;SDS011;7138;49.246;9.100;2024-03-08T02:09:52;32.97;;;18.85;;
14118;SDS011;7138;49.246;9.100;2024-03-08T02:12:18;28.83;;;18.73;;
14118;SDS011;7138;49.246;9.100;2024-03-08T02:14:45;33.08;;;18.33;;
14118;SDS011;7138;49.246;9.100;2024-03-08T02:17:12;29.77;;;18.45;;
14118;SDS011;7138;49.246;9.100;2024-03-08T02:19:38;29.30;;;19.25;;
14118;SDS011;7138;49.246;9.100;2024-03-08T02:22:05;33.28;;;19.52;;
14118;SDS011;7138;49.246;9.100;2024-03-08T02:24:31;30.17;;;19.05;;
14118;SDS011;7138;49.246;9.100;2024-03-08T02:26:58;30.63;;;18.77;;
14118;SDS011;7138;49.246;9.100;2024-03-08T02:29:24;29.75;;;18.60;;
14118;SDS011;7138;49.246;9.100;2024-03-08T02:31:50;31.00;;;18.65;;
14118;SDS011;7138;49.246;9.100;2024-03-08T02:34:16;29.00;;;19.17;;
14118;SDS011;7138;49.246;9.100;2024-03-08T02:36:42;29.42;;;18.73;;
14118;SDS011;7138;49.246;9.100;2024-03-08T02:39:09;28.48;;;18.90;;
14118;SDS011;7138;49.246;9.100;2024-03-08T02:41:35;27.83;;;18.52;;
14118;SDS011;7138;49.246;9.100;2024-03-08T02:44:01;26.52;;;17.17;;
14118;SDS011;7138;49.246;9.100;2024-03-08T02:46:28;29.83;;;18.30;;
14118;SDS011;7138;49.246;9.100;2024-03-08T02:48:55;31.33;;;19.13;;
14118;SDS011;7138;49.246;9.100;2024-03-08T02:51:21;31.20;;;18.00;;
14118;SDS011;7138;49.246;9.100;2024-03-08T02:53:47;29.45;;;18.10;;
14118;SDS011;7138;49.246;9.100;2024-03-08T02:56:18;29.38;;;17.63;;
14118;SDS011;7138;49.246;9.100;2024-03-08T02:58:44;28.55;;;17.35;;
14118;SDS011;7138;49.246;9.100;2024-03-08T03:01:13;30.25;;;17.73;;
14118;SDS011;7138;49.246;9.100;2024-03-08T03:03:39;28.85;;;17.75;;
14118;SDS011;7138;49.246;9.100;2024-03-08T03:06:06;28.95;;;18.08;;
14118;SDS011;7138;49.246;9.100;2024-03-08T03:08:32;31.60;;;19.05;;
14118;SDS011;7138;49.246;9.100;2024-03-08T03:10:58;27.27;;;19.00;;
14118;SDS011;7138;49.246;9.100;2024-03-08T03:13:25;31.10;;;19.50;;
14118;SDS011;7138;49.246;9.100;2024-03-08T03:15:50;30.40;;;19.27;;
14118;SDS011;7138;49.246;9.100;2024-03-08T03:18:16;31.55;;;19.95;;
14118;SDS011;7138;49.246;9.100;2024-03-08T03:20:46;30.30;;;19.13;;
14118;SDS011;7138;49.246;9.100;2024-03-08T03:23:12;29.02;;;19.63;;
14118;SDS011;7138;49.246;9.100;2024-03-08T03:25:39;29.30;;;17.30;;
14118;SDS011;7138;49.246;9.100;2024-03-08T03:28:06;31.02;;;19.60;;
14118;SDS011;7138;49.246;9.100;2024-03-08T03:30:34;29.17;;;17.63;;
14118;SDS011;7138;49.246;9.100;2024-03-08T03:33:00;29.52;;;18.45;;
14118;SDS011;7138;49.246;9.100;2024-03-08T03:35:26;32.08;;;19.35;;
14118;SDS011;7138;49.246;9.100;2024-03-08T03:37:53;31.83;;;19.42;;
14118;SDS011;7138;49.246;9.100;2024-03-08T03:40:31;27.00;;;18.20;;
14118;SDS011;7138;49.246;9.100;2024-03-08T03:42:58;29.25;;;18.20;;
14118;SDS011;7138;49.246;9.100;2024-03-08T03:45:24;29.92;;;18.45;;
14118;SDS011;7138;49.246;9.100;2024-03-08T03:47:51;31.75;;;18.75;;
14118;SDS011;7138;49.246;9.100;2024-03-08T03:50:17;29.25;;;18.33;;
14118;SDS011;7138;49.246;9.100;2024-03-08T03:52:44;32.47;;;17.65;;
14118;SDS011;7138;49.246;9.100;2024-03-08T03:55:10;28.88;;;17.52;;
14118;SDS011;7138;49.246;9.100;2024-03-08T03:57:37;34.78;;;19.58;;
14118;SDS011;7138;49.246;9.100;2024-03-08T04:00:03;29.92;;;19.02;;
14118;SDS011;7138;49.246;9.100;2024-03-08T04:02:31;31.98;;;19.23;;
14118;SDS011;7138;49.246;9.100;2024-03-08T04:04:58;33.08;;;19.13;;
14118;SDS011;7138;49.246;9.100;2024-03-08T04:07:24;31.90;;;20.02;;
14118;SDS011;7138;49.246;9.100;2024-03-08T04:09:49;31.58;;;19.55;;
14118;SDS011;7138;49.246;9.100;2024-03-08T04:12:15;32.55;;;20.23;;
14118;SDS011;7138;49.246;9.100;2024-03-08T04:14:42;31.58;;;18.83;;
14118;SDS011;7138;49.246;9.100;2024-03-08T04:17:08;29.50;;;18.15;;
14118;SDS011;7138;49.246;9.100;2024-03-08T04:19:34;33.70;;;19.58;;
14118;SDS011;7138;49.246;9.100;2024-03-08T04:22:01;35.28;;;20.52;;
14118;SDS011;7138;49.246;9.100;2024-03-08T04:24:27;31.55;;;19.23;;
14118;SDS011;7138;49.246;9.100;2024-03-08T04:26:53;31.58;;;19.88;;
14118;SDS011;7138;49.246;9.100;2024-03-08T04:29:19;31.90;;;19.83;;
14118;SDS011;7138;49.246;9.100;2024-03-08T04:31:47;30.35;;;19.63;;
14118;SDS011;7138;49.246;9.100;2024-03-08T04:34:12;33.15;;;21.13;;
14118;SDS011;7138;49.246;9.100;2024-03-08T04:36:39;32.60;;;20.13;;
14118;SDS011;7138;49.246;9.100;2024-03-08T04:39:06;33.95;;;18.85;;
14118;SDS011;7138;49.246;9.100;2024-03-08T04:41:37;33.05;;;19.90;;
14118;SDS011;7138;49.246;9.100;2024-03-08T04:44:03;34.33;;;21.10;;
14118;SDS011;7138;49.246;9.100;2024-03-08T04:46:30;31.05;;;19.48;;
14118;SDS011;7138;49.246;9.100;2024-03-08T04:48:55;34.30;;;18.50;;
14118;SDS011;7138;49.246;9.100;2024-03-08T04:51:21;32.72;;;19.60;;
14118;SDS011;7138;49.246;9.100;2024-03-08T04:53:47;32.95;;;18.65;;
14118;SDS011;7138;49.246;9.100;2024-03-08T04:56:15;33.15;;;19.05;;
14118;SDS011;7138;49.246;9.100;2024-03-08T04:58:41;29.98;;;18.52;;
14118;SDS011;7138;49.246;9.100;2024-03-08T05:01:06;35.97;;;18.92;;
14118;SDS011;7138;49.246;9.100;2024-03-08T05:03:35;33.42;;;19.77;;
14118;SDS011;7138;49.246;9.100;2024-03-08T05:06:01;35.60;;;19.05;;
14118;SDS011;7138;49.246;9.100;2024-03-08T05:08:27;32.92;;;19.42;;
14118;SDS011;7138;49.246;9.100;2024-03-08T05:10:53;31.55;;;17.95;;
14118;SDS011;7138;49.246;9.100;2024-03-08T05:13:21;34.88;;;19.92;;
14118;SDS011;7138;49.246;9.100;2024-03-08T05:15:47;34.67;;;20.70;;
14118;SDS011;7138;49.246;9.100;2024-03-08T05:18:15;34.50;;;20.58;;
14118;SDS011;7138;49.246;9.100;2024-03-08T05:20:41;32.92;;;19.70;;
14118;SDS011;7138;49.246;9.100;2024-03-08T05:23:06;35.20;;;20.70;;
14118;SDS011;7138;49.246;9.100;2024-03-08T05:25:33;33.58;;;20.27;;
14118;SDS011;7138;49.246;9.100;2024-03-08T05:27:59;33.47;;;19.80;;
14118;SDS011;7138;49.246;9.100;2024-03-08T05:30:26;35.33;;;20.20;;
14118;SDS011;7138;49.246;9.100;2024-03-08T05:32:52;32.13;;;20.35;;
14118;SDS011;7138;49.246;9.100;2024-03-08T05:35:17;31.13;;;19.48;;
14118;SDS011;7138;49.246;9.100;2024-03-08T05:37:43;31.75;;;20.23;;
14118;SDS011;7138;49.246;9.100;2024-03-08T05:40:10;32.88;;;20.50;;
14118;SDS011;7138;49.246;9.100;2024-03-08T05:42:36;36.97;;;20.52;;
14118;SDS011;7138;49.246;9.100;2024-03-08T05:45:02;34.95;;;21.13;;
14118;SDS011;7138;49.246;9.100;2024-03-08T05:47:30;37.53;;;21.40;;
14118;SDS011;7138;49.246;9.100;2024-03-08T05:49:55;32.53;;;20.27;;
14118;SDS011;7138;49.246;9.100;2024-03-08T05:52:21;34.10;;;20.75;;
14118;SDS011;7138;49.246;9.100;2024-03-08T05:54:47;32.00;;;20.25;;
14118;SDS011;7138;49.246;9.100;2024-03-08T05:57:13;35.00;;;20.80;;
14118;SDS011;7138;49.246;9.100;2024-03-08T05:59:39;33.33;;;19.45;;
14118;SDS011;7138;49.246;9.100;2024-03-08T06:02:05;40.38;;;21.80;;
14118;SDS011;7138;49.246;9.100;2024-03-08T06:04:32;32.92;;;20.75;;
14118;SDS011;7138;49.246;9.100;2024-03-08T06:06:58;30.05;;;20.10;;
14118;SDS011;7138;49.246;9.100;2024-03-08T06:09:23;33.80;;;21.08;;
14118;SDS011;7138;49.246;9.100;2024-03-08T06:11:50;34.95;;;20.52;;
14118;SDS011;7138;49.246;9.100;2024-03-08T06:14:16;32.00;;;19.80;;
14118;SDS011;7138;49.246;9.100;2024-03-08T06:16:43;34.22;;;22.42;;
14118;SDS011;7138;49.246;9.100;2024-03-08T06:19:09;34.15;;;20.88;;
14118;SDS011;7138;49.246;9.100;2024-03-08T06:21:36;35.20;;;20.38;;
14118;SDS011;7138;49.246;9.100;2024-03-08T06:24:02;35.22;;;20.75;;
14118;SDS011;7138;49.246;9.100;2024-03-08T06:26:29;33.08;;;21.02;;
14118;SDS011;7138;49.246;9.100;2024-03-08T06:28:55;37.25;;;21.52;;
14118;SDS011;7138;49.246;9.100;2024-03-08T06:31:22;36.75;;;21.35;;
14118;SDS011;7138;49.246;9.100;2024-03-08T06:33:48;34.67;;;21.27;;
14118;SDS011;7138;49.246;9.100;2024-03-08T06:36:19;35.97;;;21.60;;
14118;SDS011;7138;49.246;9.100;2024-03-08T06:38:48;36.90;;;21.55;;
14118;SDS011;7138;49.246;9.100;2024-03-08T06:41:14;36.20;;;21.15;;
14118;SDS011;7138;49.246;9.100;2024-03-08T06:43:42;33.05;;;21.17;;
14118;SDS011;7138;49.246;9.100;2024-03-08T06:46:09;33.30;;;20.27;;
14118;SDS011;7138;49.246;9.100;2024-03-08T06:48:36;32.42;;;19.95;;
14118;SDS011;7138;49.246;9.100;2024-03-08T06:51:05;34.10;;;20.85;;
14118;SDS011;7138;49.246;9.100;2024-03-08T06:53:31;33.88;;;21.92;;
14118;SDS011;7138;49.246;9.100;2024-03-08T06:55:58;34.30;;;21.20;;
14118;SDS011;7138;49.246;9.100;2024-03-08T06:58:24;31.98;;;21.08;;
14118;SDS011;7138;49.246;9.100;2024-03-08T07:00:50;34.40;;;19.73;;
14118;SDS011;7138;49.246;9.100;2024-03-08T07:03:17;36.83;;;21.45;;
14118;SDS011;7138;49.246;9.100;2024-03-08T07:05:43;32.88;;;19.52;;
14118;SDS011;7138;49.246;9.100;2024-03-08T07:08:08;31.85;;;19.52;;
14118;SDS011;7138;49.246;9.100;2024-03-08T07:10:34;36.25;;;22.23;;
14118;SDS011;7138;49.246;9.100;2024-03-08T07:13:03;33.00;;;20.00;;
14118;SDS011;7138;49.246;9.100;2024-03-08T07:15:30;33.63;;;19.02;;
14118;SDS011;7138;49.246;9.100;2024-03-08T07:17:56;33.30;;;19.85;;
14118;SDS011;7138;49.246;9.100;2024-03-08T07:20:22;32.40;;;20.17;;
14118;SDS011;7138;49.246;9.100;2024-03-08T07:22:48;32.42;;;18.92;;
14118;SDS011;7138;49.246;9.100;2024-03-08T07:25:15;29.67;;;19.13;;
14118;SDS011;7138;49.246;9.100;2024-03-08T07:27:49;32.40;;;19.70;;
14118;SDS011;7138;49.246;9.100;2024-03-08T07:30:19;30.33;;;18.92;;
14118;SDS011;7138;49.246;9.100;2024-03-08T07:33:05;34.05;;;20.42;;
14118;SDS011;7138;49.246;9.100;2024-03-08T07:35:32;33.50;;;21.02;;
14118;SDS011;7138;49.246;9.100;2024-03-08T07:37:58;31.60;;;19.58;;
14118;SDS011;7138;49.246;9.100;2024-03-08T07:40:25;34.30;;;21.02;;
14118;SDS011;7138;49.246;9.100;2024-03-08T07:42:51;32.38;;;20.55;;
14118;SDS011;7138;49.246;9.100;2024-03-08T07:45:17;28.83;;;19.05;;
14118;SDS011;7138;49.246;9.100;2024-03-08T07:47:44;36.53;;;19.42;;
14118;SDS011;7138;49.246;9.100;2024-03-08T07:50:10;30.70;;;18.55;;
14118;SDS011;7138;49.246;9.100;2024-03-08T07:52:36;27.63;;;17.55;;
14118;SDS011;7138;49.246;9.100;2024-03-08T07:55:02;31.20;;;19.13;;
14118;SDS011;7138;49.246;9.100;2024-03-08T07:57:28;30.55;;;17.33;;
14118;SDS011;7138;49.246;9.100;2024-03-08T07:59:54;28.00;;;19.15;;
14118;SDS011;7138;49.246;9.100;2024-03-08T08:02:22;28.15;;;17.33;;
14118;SDS011;7138;49.246;9.100;2024-03-08T08:04:47;29.77;;;17.63;;
14118;SDS011;7138;49.246;9.100;2024-03-08T08:07:13;27.55;;;16.70;;
14118;SDS011;7138;49.246;9.100;2024-03-08T08:09:39;30.55;;;18.55;;
14118;SDS011;7138;49.246;9.100;2024-03-08T08:12:05;29.77;;;19.08;;
14118;SDS011;7138;49.246;9.100;2024-03-08T08:14:32;28.05;;;16.80;;
14118;SDS011;7138;49.246;9.100;2024-03-08T08:16:58;29.00;;;17.92;;
14118;SDS011;7138;49.246;9.100;2024-03-08T08:19:30;28.40;;;17.40;;
14118;SDS011;7138;49.246;9.100;2024-03-08T08:21:56;28.88;;;19.63;;
14118;SDS011;7138;49.246;9.100;2024-03-08T08:24:22;31.50;;;18.98;;
14118;SDS011;7138;49.246;9.100;2024-03-08T08:26:48;27.92;;;18.83;;
14118;SDS011;7138;49.246;9.100;2024-03-08T08:29:14;27.13;;;16.95;;
14118;SDS011;7138;49.246;9.100;2024-03-08T08:31:41;28.77;;;18.70;;
14118;SDS011;7138;49.246;9.100;2024-03-08T08:34:09;31.02;;;18.92;;
14118;SDS011;7138;49.246;9.100;2024-03-08T08:36:37;29.83;;;19.08;;
14118;SDS011;7138;49.246;9.100;2024-03-08T08:39:03;26.20;;;16.67;;
14118;SDS011;7138;49.246;9.100;2024-03-08T08:41:37;27.60;;;18.17;;
14118;SDS011;7138;49.246;9.100;2024-03-08T08:44:03;28.27;;;17.55;;
14118;SDS011;7138;49.246;9.100;2024-03-08T08:46:29;25.00;;;14.93;;
14118;SDS011;7138;49.246;9.100;2024-03-08T08:48:54;27.45;;;18.33;;
14118;SDS011;7138;49.246;9.100;2024-03-08T08:51:21;24.27;;;15.35;;
14118;SDS011;7138;49.246;9.100;2024-03-08T08:53:49;30.85;;;20.25;;
14118;SDS011;7138;49.246;9.100;2024-03-08T08:56:15;30.52;;;19.23;;
14118;SDS011;7138;49.246;9.100;2024-03-08T08:58:41;27.23;;;18.02;;
14118;SDS011;7138;49.246;9.100;2024-03-08T09:01:07;27.45;;;18.60;;
14118;SDS011;7138;49.246;9.100;2024-03-08T09:03:35;28.88;;;19.27;;
14118;SDS011;7138;49.246;9.100;2024-03-08T09:06:02;27.13;;;18.55;;
14118;SDS011;7138;49.246;9.100;2024-03-08T09:08:29;28.42;;;18.10;;
14118;SDS011;7138;49.246;9.100;2024-03-08T09:10:56;27.00;;;18.90;;
14118;SDS011;7138;49.246;9.100;2024-03-08T09:13:24;26.38;;;16.05;;
14118;SDS011;7138;49.246;9.100;2024-03-08T09:15:50;26.85;;;18.20;;
14118;SDS011;7138;49.246;9.100;2024-03-08T09:18:17;26.85;;;17.77;;
14118;SDS011;7138;49.246;9.100;2024-03-08T09:20:44;31.25;;;19.17;;
14118;SDS011;7138;49.246;9.100;2024-03-08T09:23:10;26.67;;;15.88;;
14118;SDS011;7138;49.246;9.100;2024-03-08T09:25:36;29.40;;;18.23;;
14118;SDS011;7138;49.246;9.100;2024-03-08T09:28:04;27.42;;;19.27;;
14118;SDS011;7138;49.246;9.100;2024-03-08T09:30:30;29.25;;;17.52;;
14118;SDS011;7138;49.246;9.100;2024-03-08T09:32:56;28.55;;;16.40;;
14118;SDS011;7138;49.246;9.100;2024-03-08T09:35:22;26.27;;;16.75;;
14118;SDS011;7138;49.246;9.100;2024-03-08T09:37:48;27.33;;;18.10;;
14118;SDS011;7138;49.246;9.100;2024-03-08T09:40:16;26.75;;;17.52;;
14118;SDS011;7138;49.246;9.100;2024-03-08T09:42:44;25.83;;;16.60;;
14118;SDS011;7138;49.246;9.100;2024-03-08T09:45:12;27.88;;;17.45;;
14118;SDS011;7138;49.246;9.100;2024-03-08T09:47:40;26.63;;;16.42;;
14118;SDS011;7138;49.246;9.100;2024-03-08T09:50:08;26.95;;;17.85;;
14118;SDS011;7138;49.246;9.100;2024-03-08T09:52:37;26.90;;;17.65;;
14118;SDS011;7138;49.246;9.100;2024-03-08T09:55:05;29.35;;;17.77;;
14118;SDS011;7138;49.246;9.100;2024-03-08T09:57:32;26.95;;;17.83;;
14118;SDS011;7138;49.246;9.100;2024-03-08T09:59:58;26.60;;;17.05;;
14118;SDS011;7138;49.246;9.100;2024-03-08T10:02:26;26.48;;;17.45;;
14118;SDS011;7138;49.246;9.100;2024-03-08T10:04:52;25.17;;;17.13;;
14118;SDS011;7138;49.246;9.100;2024-03-08T10:07:18;26.30;;;15.80;;
14118;SDS011;7138;49.246;9.100;2024-03-08T10:09:44;28.42;;;18.55;;
14118;SDS011;7138;49.246;9.100;2024-03-08T10:12:15;28.48;;;17.30;;
14118;SDS011;7138;49.246;9.100;2024-03-08T10:14:42;28.67;;;18.23;;
14118;SDS011;7138;49.246;9.100;2024-03-08T10:17:08;26.50;;;18.33;;
14118;SDS011;7138;49.246;9.100;2024-03-08T10:19:36;26.08;;;16.30;;
14118;SDS011;7138;49.246;9.100;2024-03-08T10:22:02;28.33;;;18.52;;
14118;SDS011;7138;49.246;9.100;2024-03-08T10:24:29;30.00;;;17.85;;
14118;SDS011;7138;49.246;9.100;2024-03-08T10:26:58;26.73;;;18.30;;
14118;SDS011;7138;49.246;9.100;2024-03-08T10:29:26;27.42;;;18.60;;
14118;SDS011;7138;49.246;9.100;2024-03-08T10:31:53;27.77;;;18.85;;
14118;SDS011;7138;49.246;9.100;2024-03-08T10:34:21;26.13;;;18.45;;
14118;SDS011;7138;49.246;9.100;2024-03-08T10:36:50;27.40;;;17.65;;
14118;SDS011;7138;49.246;9.100;2024-03-08T10:39:19;28.55;;;18.45;;
14118;SDS011;7138;49.246;9.100;2024-03-08T10:41:49;27.05;;;17.70;;
14118;SDS011;7138;49.246;9.100;2024-03-08T10:44:24;28.98;;;18.85;;
14118;SDS011;7138;49.246;9.100;2024-03-08T10:47:17;28.38;;;18.83;;
14118;SDS011;7138;49.246;9.100;2024-03-08T10:49:51;30.83;;;18.40;;
14118;SDS011;7138;49.246;9.100;2024-03-08T10:52:30;29.63;;;17.90;;
14118;SDS011;7138;49.246;9.100;2024-03-08T10:54:57;31.50;;;18.52;;
14118;SDS011;7138;49.246;9.100;2024-03-08T10:57:24;29.42;;;19.27;;
14118;SDS011;7138;49.246;9.100;2024-03-08T10:59:52;29.70;;;19.40;;
14118;SDS011;7138;49.246;9.100;2024-03-08T11:02:20;26.55;;;18.08;;
14118;SDS011;7138;49.246;9.100;2024-03-08T11:04:46;26.80;;;16.45;;
14118;SDS011;7138;49.246;9.100;2024-03-08T11:07:14;29.20;;;18.48;;
14118;SDS011;7138;49.246;9.100;2024-03-08T11:09:44;28.57;;;18.23;;
14118;SDS011;7138;49.246;9.100;2024-03-08T11:12:22;28.38;;;18.70;;
14118;SDS011;7138;49.246;9.100;2024-03-08T11:14:51;29.90;;;19.13;;
14118;SDS011;7138;49.246;9.100;2024-03-08T11:17:25;28.25;;;18.75;;
14118;SDS011;7138;49.246;9.100;2024-03-08T11:20:08;31.73;;;19.95;;
14118;SDS011;7138;49.246;9.100;2024-03-08T11:22:40;28.13;;;17.80;;
14118;SDS011;7138;49.246;9.100;2024-03-08T11:25:31;28.25;;;18.38;;
14118;SDS011;7138;49.246;9.100;2024-03-08T11:33:50;28.65;;;19.15;;
14118;SDS011;7138;49.246;9.100;2024-03-08T11:36:20;30.52;;;17.77;;
14118;SDS011;7138;49.246;9.100;2024-03-08T11:38:48;28.88;;;19.58;;
14118;SDS011;7138;49.246;9.100;2024-03-08T11:41:15;27.52;;;18.63;;
14118;SDS011;7138;49.246;9.100;2024-03-08T11:43:44;30.55;;;19.75;;
14118;SDS011;7138;49.246;9.100;2024-03-08T11:46:11;28.50;;;18.83;;
14118;SDS011;7138;49.246;9.100;2024-03-08T11:48:38;26.52;;;16.33;;
14118;SDS011;7138;49.246;9.100;2024-03-08T11:51:06;27.67;;;17.63;;
14118;SDS011;7138;49.246;9.100;2024-03-08T11:53:33;28.67;;;18.20;;
14118;SDS011;7138;49.246;9.100;2024-03-08T11:56:05;26.48;;;16.60;;
14118;SDS011;7138;49.246;9.100;2024-03-08T11:58:34;25.17;;;16.65;;
14118;SDS011;7138;49.246;9.100;2024-03-08T12:01:02;27.58;;;19.00;;
14118;SDS011;7138;49.246;9.100;2024-03-08T12:03:30;28.38;;;19.05;;
14118;SDS011;7138;49.246;9.100;2024-03-08T12:05:59;28.38;;;19.02;;
14118;SDS011;7138;49.246;9.100;2024-03-08T12:08:26;28.05;;;17.50;;
14118;SDS011;7138;49.246;9.100;2024-03-08T12:10:53;27.17;;;19.55;;
14118;SDS011;7138;49.246;9.100;2024-03-08T12:13:24;26.92;;;19.08;;
14118;SDS011;7138;49.246;9.100;2024-03-08T12:15:52;27.80;;;18.42;;
14118;SDS011;7138;49.246;9.100;2024-03-08T12:18:17;32.42;;;21.42;;
14118;SDS011;7138;49.246;9.100;2024-03-08T12:20:43;30.08;;;20.15;;
14118;SDS011;7138;49.246;9.100;2024-03-08T12:23:14;30.23;;;20.77;;
14118;SDS011;7138;49.246;9.100;2024-03-08T12:25:41;31.45;;;20.83;;
14118;SDS011;7138;49.246;9.100;2024-03-08T12:28:07;37.63;;;25.85;;
14118;SDS011;7138;49.246;9.100;2024-03-08T12:30:44;26.27;;;19.15;;
14118;SDS011;7138;49.246;9.100;2024-03-08T12:33:14;25.52;;;18.50;;
14118;SDS011;7138;49.246;9.100;2024-03-08T12:35:40;27.30;;;18.30;;
14118;SDS011;7138;49.246;9.100;2024-03-08T12:38:14;25.52;;;18.17;;
14118;SDS011;7138;49.246;9.100;2024-03-08T12:40:40;25.58;;;18.88;;
14118;SDS011;7138;49.246;9.100;2024-03-08T12:43:07;23.77;;;16.75;;
14118;SDS011;7138;49.246;9.100;2024-03-08T12:45:33;27.70;;;18.23;;
14118;SDS011;7138;49.246;9.100;2024-03-08T12:47:58;26.23;;;16.10;;
14118;SDS011;7138;49.246;9.100;2024-03-08T12:50:26;26.30;;;18.45;;
14118;SDS011;7138;49.246;9.100;2024-03-08T12:52:52;29.20;;;17.85;;
14118;SDS011;7138;49.246;9.100;2024-03-08T12:55:18;30.23;;;16.30;;
14118;SDS011;7138;49.246;9.100;2024-03-08T12:57:44;25.48;;;17.27;;
14118;SDS011;7138;49.246;9.100;2024-03-08T13:00:12;26.33;;;17.63;;
14118;SDS011;7138;49.246;9.100;2024-03-08T13:02:44;27.58;;;18.33;;
14118;SDS011;7138;49.246;9.100;2024-03-08T13:05:10;26.90;;;18.65;;
14118;SDS011;7138;49.246;9.100;2024-03-08T13:07:40;25.15;;;17.05;;
14118;SDS011;7138;49.246;9.100;2024-03-08T13:10:11;27.48;;;16.15;;
14118;SDS011;7138;49.246;9.100;2024-03-08T13:12:39;24.17;;;16.92;;
14118;SDS011;7138;49.246;9.100;2024-03-08T13:15:06;24.75;;;17.38;;
14118;SDS011;7138;49.246;9.100;2024-03-08T13:17:34;25.27;;;18.30;;
14118;SDS011;7138;49.246;9.100;2024-03-08T13:20:00;24.50;;;18.10;;
14118;SDS011;7138;49.246;9.100;2024-03-08T13:22:26;23.38;;;16.35;;
14118;SDS011;7138;49.246;9.100;2024-03-08T13:24:54;25.52;;;18.13;;
14118;SDS011;7138;49.246;9.100;2024-03-08T13:27:20;25.35;;;18.42;;
14118;SDS011;7138;49.246;9.100;2024-03-08T13:29:49;26.65;;;16.90;;
14118;SDS011;7138;49.246;9.100;2024-03-08T13:32:15;26.15;;;17.77;;
14118;SDS011;7138;49.246;9.100;2024-03-08T13:34:42;24.15;;;17.52;;
14118;SDS011;7138;49.246;9.100;2024-03-08T13:37:10;22.60;;;15.10;;
14118;SDS011;7138;49.246;9.100;2024-03-08T13:39:36;24.85;;;17.42;;
14118;SDS011;7138;49.246;9.100;2024-03-08T13:42:07;23.98;;;17.00;;
14118;SDS011;7138;49.246;9.100;2024-03-08T13:44:38;24.48;;;15.85;;
14118;SDS011;7138;49.246;9.100;2024-03-08T13:47:08;23.45;;;17.15;;
14118;SDS011;7138;49.246;9.100;2024-03-08T13:49:34;23.17;;;17.05;;
14118;SDS011;7138;49.246;9.100;2024-03-08T13:52:00;25.17;;;17.15;;
14118;SDS011;7138;49.246;9.100;2024-03-08T13:54:26;26.65;;;17.52;;
14118;SDS011;7138;49.246;9.100;2024-03-08T13:56:52;22.77;;;16.40;;
14118;SDS011;7138;49.246;9.100;2024-03-08T13:59:20;26.00;;;17.10;;
14118;SDS011;7138;49.246;9.100;2024-03-08T14:01:47;24.58;;;16.27;;
14118;SDS011;7138;49.246;9.100;2024-03-08T14:04:14;23.05;;;17.13;;
14118;SDS011;7138;49.246;9.100;2024-03-08T14:06:42;27.23;;;17.50;;
14118;SDS011;7138;49.246;9.100;2024-03-08T14:09:10;25.58;;;17.50;;
14118;SDS011;7138;49.246;9.100;2024-03-08T14:11:41;26.15;;;17.50;;
14118;SDS011;7138;49.246;9.100;2024-03-08T14:14:07;23.88;;;16.80;;
14118;SDS011;7138;49.246;9.100;2024-03-08T14:16:35;23.45;;;16.50;;
14118;SDS011;7138;49.246;9.100;2024-03-08T14:19:02;24.30;;;16.90;;
14118;SDS011;7138;49.246;9.100;2024-03-08T14:21:30;21.70;;;15.93;;
14118;SDS011;7138;49.246;9.100;2024-03-08T14:23:56;24.48;;;15.55;;
14118;SDS011;7138;49.246;9.100;2024-03-08T14:26:22;25.63;;;15.40;;
14118;SDS011;7138;49.246;9.100;2024-03-08T14:28:48;23.63;;;15.65;;
14118;SDS011;7138;49.246;9.100;2024-03-08T14:31:16;24.60;;;17.27;;
14118;SDS011;7138;49.246;9.100;2024-03-08T14:33:45;26.98;;;18.17;;
14118;SDS011;7138;49.246;9.100;2024-03-08T14:36:14;28.27;;;18.30;;
14118;SDS011;7138;49.246;9.100;2024-03-08T14:38:42;24.83;;;16.80;;
14118;SDS011;7138;49.246;9.100;2024-03-08T14:41:08;24.17;;;16.70;;